Time;durP1;ratioP1;P1;durP2;ratioP2;P2;SDS_P1;SDS_P2;PMS_P1;PMS_P2;Temp;Humidity;BMP_temperature;BMP_pressure;BME280_temperature;BME280_humidity;BME280_pressure;Samples;Min_cycle;Max_cycle;Signal;HPM_P1;HPM_P2
2021/12/17 00:04:27;;;;;;;15.00;11.60;;;;;;;;;;5041052;28;20060;-66
2021/12/17 00:06:54;;;;;;;18.23;12.15;;;;;;;;;;5039453;28;20180;-69
2021/12/17 00:09:21;;;;;;;17.33;11.73;;;;;;;;;;5037338;28;20095;-66
2021/12/17 00:11:47;;;;;;;17.02;11.80;;;;;;;;;;5037719;28;20053;-62
2021/12/17 00:14:21;;;;;;;18.60;11.60;;;;;;;;;;5023603;28;20194;-62
2021/12/17 00:16:47;;;;;;;16.30;11.68;;;;;;;;;;5028356;28;20140;-69
2021/12/17 00:19:38;;;;;;;16.80;11.95;;;;;;;;;;5019962;28;20043;-66
2021/12/17 00:48:22;;;;;;;16.23;11.73;;;;;;;;;;5022750;28;20049;-74
2021/12/17 00:49:38;;;;;;;18.73;11.85;;;;;;;;;;5020231;28;20057;-65
2021/12/17 00:52:04;;;;;;;20.38;12.07;;;;;;;;;;5039796;28;20083;-70
2021/12/17 00:54:40;;;;;;;14.70;11.48;;;;;;;;;;5039265;28;20044;-71
2021/12/17 00:57:17;;;;;;;20.23;11.73;;;;;;;;;;5040099;28;20052;-69
2021/12/17 00:59:47;;;;;;;17.38;11.75;;;;;;;;;;5021511;28;20037;-62
2021/12/17 01:02:17;;;;;;;16.42;11.45;;;;;;;;;;5022046;28;20067;-64
2021/12/17 01:04:49;;;;;;;15.13;11.50;;;;;;;;;;5040454;28;20090;-62
2021/12/17 01:07:18;;;;;;;19.30;11.57;;;;;;;;;;5035959;28;20067;-70
2021/12/17 01:09:45;;;;;;;17.65;12.07;;;;;;;;;;5038260;28;20052;-65
2021/12/17 01:12:14;;;;;;;16.08;10.73;;;;;;;;;;5022624;28;20056;-62
2021/12/17 01:14:42;;;;;;;16.95;11.65;;;;;;;;;;5040894;28;20045;-64
2021/12/17 01:17:10;;;;;;;16.38;11.23;;;;;;;;;;5036685;28;20573;-69
2021/12/17 01:24:51;;;;;;;16.35;11.02;;;;;;;;;;5021579;28;20106;-68
2021/12/17 01:35:39;;;;;;;14.63;10.25;;;;;;;;;;5041569;28;20049;-68
2021/12/17 01:41:19;;;;;;;18.98;11.45;;;;;;;;;;5006763;28;20150;-67
2021/12/17 01:43:48;;;;;;;20.85;10.75;;;;;;;;;;5024952;28;20053;-65
2021/12/17 01:46:21;;;;;;;18.77;11.30;;;;;;;;;;5020205;28;20155;-64
2021/12/17 01:49:03;;;;;;;17.90;11.02;;;;;;;;;;5040682;28;20063;-66
2021/12/17 01:59:20;;;;;;;17.02;10.90;;;;;;;;;;5045243;28;20044;-71
2021/12/17 01:59:49;;;;;;;15.50;10.77;;;;;;;;;;5042979;28;20059;-64
2021/12/17 02:02:16;;;;;;;17.20;11.07;;;;;;;;;;5042393;28;20414;-65
2021/12/17 02:04:43;;;;;;;14.02;10.80;;;;;;;;;;5042948;28;20045;-64
2021/12/17 02:07:10;;;;;;;15.65;11.13;;;;;;;;;;5038750;28;20063;-68
2021/12/17 02:12:26;;;;;;;14.43;10.65;;;;;;;;;;5042382;28;20547;-67
2021/12/17 02:31:46;;;;;;;17.67;12.65;;;;;;;;;;4973732;28;20060;-65
2021/12/17 02:37:03;;;;;;;17.77;12.25;;;;;;;;;;4976200;28;20584;-64
2021/12/17 02:39:58;;;;;;;18.23;12.07;;;;;;;;;;4954401;28;20650;-67
2021/12/17 02:47:37;;;;;;;;;;;;;;;;;;4961932;28;20055;-67
2021/12/17 02:50:05;;;;;;;17.20;12.15;;;;;;;;;;4969161;28;19960;-66
2021/12/17 02:52:36;;;;;;;17.67;12.93;;;;;;;;;;4974014;28;20046;-68
2021/12/17 02:55:05;;;;;;;17.67;11.88;;;;;;;;;;4959582;28;20109;-67
2021/12/17 02:57:32;;;;;;;22.35;12.32;;;;;;;;;;4981892;28;20106;-68
2021/12/17 03:00:00;;;;;;;16.60;11.25;;;;;;;;;;5020766;28;20107;-70
2021/12/17 03:02:45;;;;;;;;;;;;;;;;;;5042545;28;20094;-62
2021/12/17 03:05:11;;;;;;;19.95;12.02;;;;;;;;;;5042544;28;19921;-65
2021/12/17 03:07:41;;;;;;;20.95;12.38;;;;;;;;;;5042491;28;20053;-67
2021/12/17 03:10:11;;;;;;;15.82;11.70;;;;;;;;;;5038019;28;20130;-65
2021/12/17 03:15:16;;;;;;;16.27;11.55;;;;;;;;;;5023208;28;20052;-66
2021/12/17 03:23:28;;;;;;;17.00;11.93;;;;;;;;;;5023606;28;20502;-63
2021/12/17 03:26:06;;;;;;;19.17;12.05;;;;;;;;;;5023209;28;20078;-67
2021/12/17 03:28:33;;;;;;;15.80;11.88;;;;;;;;;;5023475;28;20065;-68
2021/12/17 03:31:00;;;;;;;19.85;12.15;;;;;;;;;;5022896;28;20075;-66
2021/12/17 03:33:27;;;;;;;17.88;11.63;;;;;;;;;;5020469;28;20053;-68
2021/12/17 03:35:54;;;;;;;17.13;11.85;;;;;;;;;;5040453;28;20059;-64
2021/12/17 03:38:22;;;;;;;20.95;11.65;;;;;;;;;;5024238;28;20053;-64
2021/12/17 03:40:52;;;;;;;19.15;11.85;;;;;;;;;;5022717;28;20049;-61
2021/12/17 03:43:23;;;;;;;17.52;11.90;;;;;;;;;;5041921;28;20053;-62
2021/12/17 03:45:51;;;;;;;15.82;11.93;;;;;;;;;;5042176;28;20060;-64
2021/12/17 03:48:18;;;;;;;17.15;11.63;;;;;;;;;;5043822;28;20504;-66
2021/12/17 03:50:44;;;;;;;17.27;12.05;;;;;;;;;;5039871;28;20049;-63
2021/12/17 03:53:10;;;;;;;16.67;11.52;;;;;;;;;;5005318;28;20116;-67
2021/12/17 03:55:36;;;;;;;15.68;11.85;;;;;;;;;;5006259;28;20052;-63
2021/12/17 03:58:03;;;;;;;16.45;11.15;;;;;;;;;;5041851;28;20174;-66
2021/12/17 04:00:30;;;;;;;13.98;11.13;;;;;;;;;;5038270;28;20148;-65
2021/12/17 04:02:56;;;;;;;15.20;11.57;;;;;;;;;;5040534;28;20537;-62
2021/12/17 04:05:24;;;;;;;16.15;11.25;;;;;;;;;;5023058;28;20064;-66
2021/12/17 04:07:50;;;;;;;16.85;11.60;;;;;;;;;;5042312;28;20132;-68
2021/12/17 04:10:20;;;;;;;15.23;11.20;;;;;;;;;;5041315;28;20048;-62
2021/12/17 04:12:55;;;;;;;15.70;11.30;;;;;;;;;;5023576;28;20063;-66
2021/12/17 04:15:35;;;;;;;16.75;11.13;;;;;;;;;;5023671;28;20061;-72
2021/12/17 04:18:07;;;;;;;15.18;11.13;;;;;;;;;;5024111;28;20045;-68
2021/12/17 04:20:34;;;;;;;15.90;11.20;;;;;;;;;;5021985;28;20082;-70
2021/12/17 04:23:01;;;;;;;13.10;10.40;;;;;;;;;;5023399;28;20049;-69
2021/12/17 04:25:28;;;;;;;16.30;10.77;;;;;;;;;;5042441;28;20057;-63
2021/12/17 04:27:56;;;;;;;15.18;10.35;;;;;;;;;;5025048;28;20521;-64
2021/12/17 04:30:22;;;;;;;14.15;10.50;;;;;;;;;;5022580;28;20053;-67
2021/12/17 04:32:48;;;;;;;15.98;10.48;;;;;;;;;;5025442;28;20079;-62
2021/12/17 04:35:15;;;;;;;13.60;10.20;;;;;;;;;;5038871;28;20049;-66
2021/12/17 04:37:41;;;;;;;14.43;10.55;;;;;;;;;;5039986;28;20531;-65
2021/12/17 04:40:08;;;;;;;13.45;10.90;;;;;;;;;;5039324;28;20063;-66
2021/12/17 04:45:03;;;;;;;15.95;10.02;;;;;;;;;;5023236;28;20041;-73
2021/12/17 04:58:28;;;;;;;14.32;10.73;;;;;;;;;;5040778;28;20160;-67
2021/12/17 05:00:55;;;;;;;14.82;10.15;;;;;;;;;;5017748;28;20048;-64
2021/12/17 05:03:22;;;;;;;14.77;10.07;;;;;;;;;;5021856;28;20057;-62
2021/12/17 05:05:49;;;;;;;15.27;10.38;;;;;;;;;;5039329;28;20049;-66
2021/12/17 05:08:18;;;;;;;15.73;10.57;;;;;;;;;;5022491;28;20147;-62
2021/12/17 05:18:13;;;;;;;15.75;10.07;;;;;;;;;;5018776;28;20041;-70
2021/12/17 05:19:13;;;;;;;14.25;10.63;;;;;;;;;;5022924;28;20451;-63
2021/12/17 05:21:40;;;;;;;13.23;10.30;;;;;;;;;;5040160;28;20052;-63
2021/12/17 05:24:06;;;;;;;17.17;10.63;;;;;;;;;;5020168;28;20052;-68
2021/12/17 05:26:32;;;;;;;15.50;9.73;;;;;;;;;;5041439;28;20060;-66
2021/12/17 05:28:59;;;;;;;12.70;9.82;;;;;;;;;;5043937;28;20052;-69
2021/12/17 05:31:25;;;;;;;16.23;10.45;;;;;;;;;;5043394;28;20139;-64
2021/12/17 05:33:53;;;;;;;17.55;10.45;;;;;;;;;;5023966;28;20573;-67
2021/12/17 05:36:20;;;;;;;20.42;11.20;;;;;;;;;;5025178;28;20081;-63
2021/12/17 05:38:47;;;;;;;15.98;10.50;;;;;;;;;;5026541;28;20485;-64
2021/12/17 05:41:13;;;;;;;15.45;11.07;;;;;;;;;;5021885;28;20285;-67
2021/12/17 05:43:39;;;;;;;15.60;11.43;;;;;;;;;;5044094;28;20052;-66
2021/12/17 05:46:10;;;;;;;15.65;10.95;;;;;;;;;;5021759;28;20049;-68
2021/12/17 05:48:38;;;;;;;15.15;10.85;;;;;;;;;;5008813;28;20449;-66
2021/12/17 05:51:07;;;;;;;15.43;10.90;;;;;;;;;;5041359;28;20053;-67
2021/12/17 05:53:34;;;;;;;15.75;11.45;;;;;;;;;;5044079;28;20478;-70
2021/12/17 05:56:01;;;;;;;17.75;12.07;;;;;;;;;;5016620;28;20057;-71
2021/12/17 05:58:28;;;;;;;15.20;11.35;;;;;;;;;;5042548;28;20060;-73
2021/12/17 06:00:55;;;;;;;18.27;11.63;;;;;;;;;;5024125;28;20671;-64
2021/12/17 06:03:23;;;;;;;17.77;11.63;;;;;;;;;;5025338;28;20052;-64
2021/12/17 06:05:49;;;;;;;16.50;11.60;;;;;;;;;;5026215;28;20132;-63
2021/12/17 06:08:16;;;;;;;15.75;11.05;;;;;;;;;;5043924;28;20048;-64
2021/12/17 06:10:42;;;;;;;22.48;11.27;;;;;;;;;;5042887;28;20441;-67
2021/12/17 06:13:08;;;;;;;17.25;11.93;;;;;;;;;;5026206;28;20479;-65
2021/12/17 06:15:34;;;;;;;16.15;12.48;;;;;;;;;;5042897;28;20147;-69
2021/12/17 06:18:00;;;;;;;17.35;12.38;;;;;;;;;;5009296;28;20136;-65
2021/12/17 06:20:27;;;;;;;17.90;11.98;;;;;;;;;;5023437;28;20171;-69
2021/12/17 06:22:54;;;;;;;19.40;12.30;;;;;;;;;;5043864;28;20053;-64
2021/12/17 06:25:20;;;;;;;17.58;12.50;;;;;;;;;;5040884;28;20060;-63
2021/12/17 06:27:47;;;;;;;17.30;12.23;;;;;;;;;;5041876;28;20159;-63
2021/12/17 06:30:15;;;;;;;20.38;13.77;;;;;;;;;;5021241;28;20057;-65
2021/12/17 06:32:41;;;;;;;15.48;12.57;;;;;;;;;;5026037;28;20098;-70
2021/12/17 06:35:08;;;;;;;20.27;13.02;;;;;;;;;;5023241;28;20049;-69
2021/12/17 06:37:36;;;;;;;20.05;12.63;;;;;;;;;;5042219;28;20080;-68
2021/12/17 06:40:05;;;;;;;21.30;12.77;;;;;;;;;;5041775;28;20053;-71
2021/12/17 06:42:31;;;;;;;16.67;11.98;;;;;;;;;;5042036;28;20482;-71
2021/12/17 06:45:02;;;;;;;18.98;12.63;;;;;;;;;;5043725;28;20916;-66
2021/12/17 06:47:31;;;;;;;15.90;12.30;;;;;;;;;;5019999;28;20575;-66
2021/12/17 06:58:52;;;;;;;21.83;11.95;;;;;;;;;;5039615;28;20092;-63
2021/12/17 07:06:00;;;;;;;16.73;10.93;;;;;;;;;;5041418;28;20045;-65
2021/12/17 07:17:08;;;;;;;17.02;11.18;;;;;;;;;;5036428;28;20056;-72
2021/12/17 07:20:38;;;;;;;19.58;10.80;;;;;;;;;;5024874;28;20061;-71
2021/12/17 07:35:55;;;;;;;17.45;10.93;;;;;;;;;;5018006;28;20052;-68
2021/12/17 07:38:47;;;;;;;19.25;10.63;;;;;;;;;;5041426;28;20068;-67
2021/12/17 07:41:14;;;;;;;21.20;9.88;;;;;;;;;;5036494;28;20057;-67
2021/12/17 07:43:51;;;;;;;21.83;11.07;;;;;;;;;;5023650;28;20505;-69
2021/12/17 07:46:19;;;;;;;22.60;11.75;;;;;;;;;;5040431;28;20045;-69
2021/12/17 07:48:46;;;;;;;20.80;11.15;;;;;;;;;;5042763;28;20128;-63
2021/12/17 07:51:16;;;;;;;21.85;10.63;;;;;;;;;;5045556;28;20139;-65
2021/12/17 07:53:42;;;;;;;17.38;10.00;;;;;;;;;;5010070;28;20048;-64
2021/12/17 07:56:12;;;;;;;17.02;10.15;;;;;;;;;;5031373;28;20049;-64
2021/12/17 07:58:39;;;;;;;14.75;10.18;;;;;;;;;;5031379;28;20056;-64
2021/12/17 08:01:08;;;;;;;19.55;10.30;;;;;;;;;;5032671;28;20037;-66
2021/12/17 08:03:34;;;;;;;15.23;10.80;;;;;;;;;;5033403;28;20405;-64
2021/12/17 08:06:01;;;;;;;15.80;11.07;;;;;;;;;;5032208;28;20045;-66
2021/12/17 08:08:28;;;;;;;19.00;11.30;;;;;;;;;;5042972;28;20490;-73
2021/12/17 08:10:55;;;;;;;19.00;11.43;;;;;;;;;;5048983;28;20125;-75
2021/12/17 08:13:26;;;;;;;18.75;11.68;;;;;;;;;;5050218;28;20041;-67
2021/12/17 08:16:09;;;;;;;15.65;10.77;;;;;;;;;;5051747;28;20394;-68
2021/12/17 08:18:51;;;;;;;18.67;11.27;;;;;;;;;;5053660;28;20140;-65
2021/12/17 08:26:54;;;;;;;21.73;10.38;;;;;;;;;;5025574;28;19924;-65
2021/12/17 08:29:44;;;;;;;16.67;10.20;;;;;;;;;;5043022;28;20109;-68
2021/12/17 08:32:11;;;;;;;22.73;10.18;;;;;;;;;;5040470;28;20057;-73
2021/12/17 08:34:38;;;;;;;18.05;10.80;;;;;;;;;;5042709;28;20234;-64
2021/12/17 08:37:06;;;;;;;18.88;11.68;;;;;;;;;;5039750;28;20130;-67
2021/12/17 08:39:32;;;;;;;17.92;10.98;;;;;;;;;;5005062;28;20053;-66
2021/12/17 08:42:00;;;;;;;20.60;10.40;;;;;;;;;;5034051;28;20527;-68
2021/12/17 08:44:26;;;;;;;15.15;10.35;;;;;;;;;;5036555;28;20040;-78
2021/12/17 08:46:52;;;;;;;18.70;10.40;;;;;;;;;;5017752;28;20056;-70
2021/12/17 08:49:19;;;;;;;22.63;10.85;;;;;;;;;;5036504;28;20460;-69
2021/12/17 08:51:46;;;;;;;22.85;11.65;;;;;;;;;;5033467;28;21035;-73
2021/12/17 08:54:12;;;;;;;19.80;11.48;;;;;;;;;;5034428;28;20140;-79
2021/12/17 08:56:45;;;;;;;17.60;10.40;;;;;;;;;;5034402;28;20528;-67
2021/12/17 08:59:14;;;;;;;28.10;12.90;;;;;;;;;;5036745;28;20227;-69
2021/12/17 09:01:41;;;;;;;18.27;10.85;;;;;;;;;;5018358;28;20771;-77
2021/12/17 09:04:07;;;;;;;20.48;10.15;;;;;;;;;;5038277;28;20045;-66
2021/12/17 09:06:33;;;;;;;16.23;9.95;;;;;;;;;;5035158;28;20103;-79
2021/12/17 09:09:00;;;;;;;16.83;10.10;;;;;;;;;;5022528;28;20056;-64
2021/12/17 09:11:29;;;;;;;17.23;10.07;;;;;;;;;;5038579;28;20052;-67
2021/12/17 09:13:57;;;;;;;20.45;8.93;;;;;;;;;;5038735;28;20521;-68
2021/12/17 09:16:24;;;;;;;17.30;10.35;;;;;;;;;;5042916;28;20053;-68
2021/12/17 09:18:52;;;;;;;14.18;9.27;;;;;;;;;;5041463;28;20064;-76
2021/12/17 09:21:18;;;;;;;16.35;9.77;;;;;;;;;;5039760;28;20135;-74
2021/12/17 09:23:45;;;;;;;15.55;9.43;;;;;;;;;;5022435;28;20053;-67
2021/12/17 09:26:14;;;;;;;17.83;9.05;;;;;;;;;;5040202;28;20115;-64
2021/12/17 09:28:40;;;;;;;17.73;9.63;;;;;;;;;;5023127;28;20071;-68
2021/12/17 09:31:11;;;;;;;15.55;9.27;;;;;;;;;;5022600;28;20064;-74
2021/12/17 09:33:40;;;;;;;15.93;9.20;;;;;;;;;;5038821;28;20061;-67
2021/12/17 09:36:06;;;;;;;16.58;9.07;;;;;;;;;;5019587;28;20535;-67
2021/12/17 09:38:33;;;;;;;14.60;8.95;;;;;;;;;;5022485;28;20056;-64
2021/12/17 09:40:59;;;;;;;14.95;8.90;;;;;;;;;;5024153;28;20119;-72
2021/12/17 09:43:26;;;;;;;15.80;9.43;;;;;;;;;;5039370;28;20076;-68
2021/12/17 09:45:53;;;;;;;15.52;9.77;;;;;;;;;;5045259;28;20060;-68
2021/12/17 09:48:20;;;;;;;18.13;10.25;;;;;;;;;;5024441;28;20052;-69
2021/12/17 09:50:47;;;;;;;18.50;9.45;;;;;;;;;;5020529;28;20053;-69
2021/12/17 09:53:13;;;;;;;20.38;9.82;;;;;;;;;;5036275;28;20072;-78
2021/12/17 09:55:39;;;;;;;18.90;9.52;;;;;;;;;;5020495;28;20639;-66
2021/12/17 09:58:05;;;;;;;16.92;9.25;;;;;;;;;;5039843;28;20093;-69
2021/12/17 10:00:31;;;;;;;18.67;9.65;;;;;;;;;;5037800;28;20133;-68
2021/12/17 10:02:58;;;;;;;14.23;8.95;;;;;;;;;;5039499;28;20226;-63
2021/12/17 10:05:32;;;;;;;16.23;9.73;;;;;;;;;;5020937;28;20410;-72
2021/12/17 10:08:04;;;;;;;20.30;9.70;;;;;;;;;;5021117;28;20050;-67
2021/12/17 10:10:41;;;;;;;20.38;10.10;;;;;;;;;;5042878;28;20088;-65
2021/12/17 10:13:29;;;;;;;19.63;9.63;;;;;;;;;;5041262;28;20155;-65
2021/12/17 10:16:06;;;;;;;27.25;10.52;;;;;;;;;;5004836;28;20055;-77
2021/12/17 10:18:46;;;;;;;22.08;10.13;;;;;;;;;;5022159;28;20056;-70
2021/12/17 10:21:24;;;;;;;17.02;10.07;;;;;;;;;;5023886;28;20352;-84
2021/12/17 10:23:52;;;;;;;17.55;9.65;;;;;;;;;;5023542;28;20490;-73
2021/12/17 10:26:20;;;;;;;17.98;8.95;;;;;;;;;;5045764;28;20045;-66
2021/12/17 10:28:59;;;;;;;17.10;10.80;;;;;;;;;;5020267;28;20041;-71
2021/12/17 10:31:27;;;;;;;18.98;10.52;;;;;;;;;;5039341;28;20146;-66
2021/12/17 10:33:58;;;;;;;21.33;10.60;;;;;;;;;;5044209;28;20098;-69
2021/12/17 10:36:35;;;;;;;27.17;10.13;;;;;;;;;;5042325;28;20474;-75
2021/12/17 10:39:20;;;;;;;22.88;10.48;;;;;;;;;;5041482;28;20052;-75
2021/12/17 10:41:48;;;;;;;21.42;10.77;;;;;;;;;;5042721;28;20060;-71
2021/12/17 10:44:14;;;;;;;19.88;10.63;;;;;;;;;;5044900;28;20588;-66
2021/12/17 10:47:06;;;;;;;19.08;10.93;;;;;;;;;;5043202;28;20055;-66
2021/12/17 10:49:33;;;;;;;25.73;10.35;;;;;;;;;;5039254;28;20119;-66
2021/12/17 10:52:13;;;;;;;19.23;10.85;;;;;;;;;;5041238;28;20099;-73
2021/12/17 10:54:42;;;;;;;18.75;11.10;;;;;;;;;;5038286;28;20060;-69
2021/12/17 10:57:09;;;;;;;23.38;12.10;;;;;;;;;;5038016;28;20053;-73
2021/12/17 10:59:36;;;;;;;19.25;11.07;;;;;;;;;;5040339;28;20059;-68
2021/12/17 11:02:10;;;;;;;20.60;11.32;;;;;;;;;;5011802;28;20060;-65
2021/12/17 11:04:40;;;;;;;19.47;11.87;;;;;;;;;;5013567;28;20498;-67
2021/12/17 11:07:14;;;;;;;21.65;11.65;;;;;;;;;;5015162;28;20290;-64
2021/12/17 11:09:57;;;;;;;24.55;11.73;;;;;;;;;;5035969;28;20056;-70
2021/12/17 11:12:35;;;;;;;24.05;11.23;;;;;;;;;;5033387;28;20084;-76
2021/12/17 11:15:07;;;;;;;21.48;11.30;;;;;;;;;;5037234;28;20431;-65
2021/12/17 11:17:33;;;;;;;18.75;11.43;;;;;;;;;;5034535;28;20057;-64
2021/12/17 11:20:03;;;;;;;22.60;11.60;;;;;;;;;;5042530;28;20041;-68
2021/12/17 11:22:30;;;;;;;19.67;11.05;;;;;;;;;;5017010;28;20045;-72
2021/12/17 11:25:00;;;;;;;15.45;10.55;;;;;;;;;;5039113;28;20772;-72
2021/12/17 11:27:26;;;;;;;17.63;10.07;;;;;;;;;;5034677;28;20049;-69
2021/12/17 11:29:54;;;;;;;19.10;10.95;;;;;;;;;;5037636;28;20409;-73
2021/12/17 11:32:20;;;;;;;21.85;10.50;;;;;;;;;;5016611;28;20057;-82
2021/12/17 11:34:47;;;;;;;21.73;10.27;;;;;;;;;;5034412;28;20059;-73
2021/12/17 11:37:14;;;;;;;17.73;9.90;;;;;;;;;;5033865;28;20052;-78
2021/12/17 11:39:50;;;;;;;15.88;10.32;;;;;;;;;;5018961;28;20107;-77
2021/12/17 11:42:59;;;;;;;16.70;9.68;;;;;;;;;;5030302;28;20056;-70
2021/12/17 11:45:27;;;;;;;17.95;9.27;;;;;;;;;;5009675;28;20552;-73
2021/12/17 11:48:09;;;;;;;15.75;9.70;;;;;;;;;;5012911;28;20057;-71
2021/12/17 11:50:36;;;;;;;17.15;9.77;;;;;;;;;;5011807;28;20069;-67
2021/12/17 11:53:20;;;;;;;20.60;9.75;;;;;;;;;;5018904;28;20063;-74
2021/12/17 11:55:55;;;;;;;19.60;10.80;;;;;;;;;;5031890;28;20057;-70
2021/12/17 11:58:48;;;;;;;26.02;10.90;;;;;;;;;;5001301;28;20049;-75
2021/12/17 12:01:48;;;;;;;17.48;9.93;;;;;;;;;;5014270;28;20053;-76
2021/12/17 12:05:02;;;;;;;16.50;9.60;;;;;;;;;;5015114;28;20504;-69
2021/12/17 12:07:28;;;;;;;14.57;9.85;;;;;;;;;;5034596;28;20099;-68
2021/12/17 12:10:11;;;;;;;17.23;8.60;;;;;;;;;;5030429;28;20052;-76
2021/12/17 12:12:47;;;;;;;15.52;9.43;;;;;;;;;;4998454;28;20049;-66
2021/12/17 12:15:23;;;;;;;13.68;9.05;;;;;;;;;;5019116;28;20073;-74
2021/12/17 12:18:06;;;;;;;14.00;8.52;;;;;;;;;;5035451;28;20061;-70
2021/12/17 12:20:51;;;;;;;18.58;8.82;;;;;;;;;;5043025;28;20052;-68
2021/12/17 12:23:28;;;;;;;14.15;8.00;;;;;;;;;;5018640;28;20083;-74
2021/12/17 12:26:04;;;;;;;14.45;7.80;;;;;;;;;;5018251;28;20059;-74
2021/12/17 12:28:45;;;;;;;13.93;8.30;;;;;;;;;;5037914;28;20049;-71
2021/12/17 12:31:24;;;;;;;10.30;7.65;;;;;;;;;;5034093;28;20057;-73
2021/12/17 12:34:06;;;;;;;11.60;7.65;;;;;;;;;;5037494;28;20075;-69
2021/12/17 12:36:47;;;;;;;14.80;7.82;;;;;;;;;;5001176;28;20527;-72
2021/12/17 12:39:14;;;;;;;15.27;8.02;;;;;;;;;;5036185;28;20057;-76
2021/12/17 12:42:07;;;;;;;15.48;8.20;;;;;;;;;;5038739;28;20536;-64
2021/12/17 12:44:42;;;;;;;10.82;7.20;;;;;;;;;;5039045;28;20049;-72
2021/12/17 12:47:20;;;;;;;11.32;7.53;;;;;;;;;;5019393;28;21086;-68
2021/12/17 12:49:54;;;;;;;12.65;6.82;;;;;;;;;;5037620;28;20061;-71
2021/12/17 12:52:20;;;;;;;14.15;7.88;;;;;;;;;;5034212;28;20045;-71
2021/12/17 12:54:51;;;;;;;14.57;7.85;;;;;;;;;;5035099;28;20162;-74
2021/12/17 12:57:49;;;;;;;16.65;7.97;;;;;;;;;;5038919;28;20053;-68
2021/12/17 13:00:33;;;;;;;15.63;8.00;;;;;;;;;;5042513;28;20574;-73
2021/12/17 13:03:09;;;;;;;18.55;8.07;;;;;;;;;;5042845;28;20053;-64
2021/12/17 13:05:36;;;;;;;13.10;7.50;;;;;;;;;;5022235;28;20068;-76
2021/12/17 13:08:05;;;;;;;10.55;7.38;;;;;;;;;;5022634;28;20051;-71
2021/12/17 13:10:33;;;;;;;11.35;7.50;;;;;;;;;;5037536;28;20056;-70
2021/12/17 13:13:03;;;;;;;11.35;7.70;;;;;;;;;;5019443;28;20053;-65
2021/12/17 13:20:58;;;;;;;;;;;;;;;;;;;;;
2021/12/17 13:23:21;;;;;;;18.20;8.00;;;;;;;;;;5036506;28;20567;-68
2021/12/17 13:26:09;;;;;;;14.18;7.63;;;;;;;;;;5020862;28;20448;-68
2021/12/17 13:28:49;;;;;;;13.90;6.72;;;;;;;;;;5022064;28;20067;-64
2021/12/17 13:31:34;;;;;;;11.35;7.45;;;;;;;;;;5020198;28;20121;-77
2021/12/17 13:34:04;;;;;;;14.13;7.35;;;;;;;;;;5021194;28;20052;-63
2021/12/17 13:36:32;;;;;;;10.15;6.30;;;;;;;;;;5042865;28;20071;-66
2021/12/17 13:38:58;;;;;;;11.40;6.05;;;;;;;;;;5026592;28;20057;-66
2021/12/17 13:41:41;;;;;;;10.18;6.45;;;;;;;;;;5044621;28;20053;-81
2021/12/17 13:44:26;;;;;;;13.18;6.60;;;;;;;;;;5029348;28;20056;-65
2021/12/17 13:46:53;;;;;;;12.10;6.20;;;;;;;;;;5047215;28;20682;-68
2021/12/17 13:49:20;;;;;;;11.93;6.43;;;;;;;;;;5048987;28;20057;-76
2021/12/17 13:51:46;;;;;;;9.70;6.53;;;;;;;;;;5029334;28;20167;-68
2021/12/17 13:54:13;;;;;;;10.73;6.72;;;;;;;;;;5047856;28;20209;-71
2021/12/17 13:56:39;;;;;;;18.45;6.78;;;;;;;;;;5045914;28;20068;-68
2021/12/17 13:59:07;;;;;;;12.30;6.25;;;;;;;;;;5008356;28;20052;-67
2021/12/17 14:01:36;;;;;;;10.20;5.50;;;;;;;;;;5026272;28;20053;-64
2021/12/17 14:04:11;;;;;;;10.43;6.68;;;;;;;;;;5027667;28;20049;-65
2021/12/17 14:06:50;;;;;;;10.82;6.07;;;;;;;;;;5043092;28;20082;-66
2021/12/17 14:09:18;;;;;;;10.05;4.93;;;;;;;;;;5025721;28;20065;-73
2021/12/17 14:11:44;;;;;;;12.07;4.85;;;;;;;;;;5021210;28;20057;-75
2021/12/17 14:14:24;;;;;;;12.00;4.65;;;;;;;;;;5039934;28;20068;-65
2021/12/17 14:16:59;;;;;;;10.15;5.30;;;;;;;;;;5042654;28;20049;-75
2021/12/17 14:20:04;;;;;;;10.65;5.15;;;;;;;;;;5023551;28;20084;-80
2021/12/17 14:22:34;;;;;;;9.48;5.30;;;;;;;;;;5007509;28;20047;-68
2021/12/17 14:25:26;;;;;;;7.93;5.25;;;;;;;;;;5042931;28;20037;-65
2021/12/17 14:27:59;;;;;;;7.90;5.18;;;;;;;;;;5043525;28;20059;-74
2021/12/17 14:30:33;;;;;;;9.43;5.22;;;;;;;;;;5026201;28;20057;-69
2021/12/17 14:33:06;;;;;;;10.30;5.63;;;;;;;;;;5020815;28;20041;-74
2021/12/17 14:35:56;;;;;;;9.80;5.95;;;;;;;;;;5035959;28;20140;-64
2021/12/17 14:38:35;;;;;;;11.23;6.20;;;;;;;;;;5017921;28;20045;-67
2021/12/17 14:41:03;;;;;;;10.38;5.68;;;;;;;;;;5044467;28;20085;-72
2021/12/17 14:43:38;;;;;;;13.05;5.35;;;;;;;;;;5043013;28;20045;-67
2021/12/17 14:48:58;;;;;;;7.28;5.15;;;;;;;;;;5024822;28;20566;-64
2021/12/17 15:03:17;;;;;;;8.35;4.50;;;;;;;;;;5034834;28;20052;-67
2021/12/17 15:05:44;;;;;;;9.38;4.53;;;;;;;;;;4998758;28;20168;-78
2021/12/17 15:08:10;;;;;;;9.48;4.53;;;;;;;;;;5014264;28;20054;-67
2021/12/17 15:10:37;;;;;;;16.70;5.63;;;;;;;;;;5016511;28;20161;-66
2021/12/17 15:13:05;;;;;;;9.43;4.75;;;;;;;;;;5015080;28;20085;-67
2021/12/17 15:15:35;;;;;;;14.02;5.63;;;;;;;;;;4977598;28;20046;-73
2021/12/17 15:18:10;;;;;;;9.02;5.30;;;;;;;;;;5001840;28;20125;-75
2021/12/17 15:20:36;;;;;;;9.23;5.03;;;;;;;;;;5000055;28;20123;-70
2021/12/17 15:23:04;;;;;;;15.07;4.82;;;;;;;;;;4993973;28;20050;-71
2021/12/17 15:25:30;;;;;;;7.35;4.28;;;;;;;;;;5016463;28;20050;-70
2021/12/17 15:27:57;;;;;;;10.75;4.65;;;;;;;;;;5016621;28;20053;-69
2021/12/17 15:30:27;;;;;;;6.53;4.40;;;;;;;;;;4999359;28;20049;-75
2021/12/17 15:32:54;;;;;;;11.60;4.65;;;;;;;;;;5013459;28;20491;-74
2021/12/17 15:35:23;;;;;;;8.65;4.55;;;;;;;;;;5015420;28;20041;-78
2021/12/17 15:37:52;;;;;;;8.43;4.43;;;;;;;;;;5014879;28;20388;-68
2021/12/17 15:40:21;;;;;;;9.27;4.15;;;;;;;;;;5016166;28;20498;-74
2021/12/17 15:42:48;;;;;;;6.82;4.60;;;;;;;;;;4994340;28;20050;-67
2021/12/17 15:45:15;;;;;;;10.10;5.07;;;;;;;;;;4998597;28;20266;-69
2021/12/17 15:47:42;;;;;;;11.63;5.00;;;;;;;;;;5017163;28;20076;-72
2021/12/17 15:50:10;;;;;;;15.18;5.10;;;;;;;;;;4997696;28;20061;-68
2021/12/17 15:52:45;;;;;;;11.20;5.28;;;;;;;;;;5014058;28;20574;-69
2021/12/17 15:55:18;;;;;;;9.18;5.20;;;;;;;;;;5023523;28;20144;-70
2021/12/17 15:57:44;;;;;;;9.25;5.35;;;;;;;;;;5018509;28;20451;-75
2021/12/17 16:00:12;;;;;;;10.32;5.68;;;;;;;;;;5001473;28;20068;-70
2021/12/17 16:02:39;;;;;;;10.70;5.32;;;;;;;;;;5017091;28;20936;-68
2021/12/17 16:05:08;;;;;;;8.90;5.60;;;;;;;;;;5022978;28;20053;-68
2021/12/17 16:07:36;;;;;;;11.48;5.32;;;;;;;;;;5017486;28;20519;-72
2021/12/17 16:21:00;;;;;;;11.57;5.40;;;;;;;;;;5015132;28;20041;-76
2021/12/17 16:23:32;;;;;;;13.40;4.78;;;;;;;;;;4996140;28;20045;-72
2021/12/17 16:25:59;;;;;;;10.73;5.35;;;;;;;;;;4995229;28;20394;-67
2021/12/17 16:28:28;;;;;;;11.40;6.57;;;;;;;;;;5013084;28;20510;-72
2021/12/17 16:31:09;;;;;;;14.55;5.82;;;;;;;;;;5018354;28;20049;-68
2021/12/17 16:33:42;;;;;;;11.25;5.18;;;;;;;;;;5021539;28;20107;-64
2021/12/17 16:36:11;;;;;;;18.10;5.03;;;;;;;;;;5028757;28;20057;-64
2021/12/17 16:38:39;;;;;;;12.27;4.93;;;;;;;;;;5015169;28;20499;-66
2021/12/17 16:41:07;;;;;;;7.75;4.72;;;;;;;;;;5014012;28;20538;-64
2021/12/17 16:43:33;;;;;;;7.05;4.60;;;;;;;;;;5004868;28;20132;-69
2021/12/17 16:48:43;;;;;;;10.90;5.05;;;;;;;;;;5015505;28;20049;-70
2021/12/17 16:51:12;;;;;;;7.45;4.70;;;;;;;;;;4994496;28;20057;-80
2021/12/17 16:53:39;;;;;;;16.23;4.78;;;;;;;;;;4993336;28;20211;-70
2021/12/17 16:56:07;;;;;;;7.88;4.70;;;;;;;;;;5010171;28;20458;-68
2021/12/17 16:58:33;;;;;;;9.77;5.75;;;;;;;;;;4995862;28;20434;-67
2021/12/17 17:01:00;;;;;;;8.88;4.97;;;;;;;;;;5006057;28;20049;-77
2021/12/17 17:03:27;;;;;;;10.50;5.40;;;;;;;;;;5002987;28;20050;-72
2021/12/17 17:05:54;;;;;;;9.30;6.47;;;;;;;;;;5009617;28;20582;-74
2021/12/17 17:08:21;;;;;;;11.02;6.07;;;;;;;;;;5007717;28;20534;-72
2021/12/17 17:11:00;;;;;;;7.65;5.45;;;;;;;;;;4986444;28;20050;-70
2021/12/17 17:13:26;;;;;;;8.43;5.80;;;;;;;;;;5004301;28;20474;-77
2021/12/17 17:15:53;;;;;;;10.35;5.60;;;;;;;;;;5004770;28;20045;-71
2021/12/17 17:18:19;;;;;;;9.30;6.20;;;;;;;;;;4973308;28;20068;-73
2021/12/17 17:20:46;;;;;;;14.50;6.47;;;;;;;;;;5009743;28;20067;-71
2021/12/17 17:23:12;;;;;;;12.63;7.00;;;;;;;;;;5008028;28;20112;-73
2021/12/17 17:25:38;;;;;;;9.68;6.15;;;;;;;;;;5007824;28;20119;-70
2021/12/17 17:28:06;;;;;;;11.68;6.35;;;;;;;;;;5012654;28;20058;-71
2021/12/17 17:30:34;;;;;;;12.65;6.80;;;;;;;;;;5007776;28;20053;-68
2021/12/17 17:33:02;;;;;;;10.52;6.90;;;;;;;;;;5004845;28;20064;-69
2021/12/17 17:35:29;;;;;;;14.73;6.72;;;;;;;;;;5007757;28;20136;-72
2021/12/17 17:37:55;;;;;;;9.25;6.63;;;;;;;;;;4989449;28;20132;-69
2021/12/17 17:40:22;;;;;;;14.52;6.93;;;;;;;;;;4985024;28;20561;-75
2021/12/17 17:42:50;;;;;;;13.57;7.70;;;;;;;;;;5003818;28;20454;-70
2021/12/17 17:45:17;;;;;;;13.73;7.22;;;;;;;;;;4971146;28;20141;-74
2021/12/17 17:47:50;;;;;;;10.32;7.53;;;;;;;;;;4989057;28;20489;-73